Terminal Aerodrome Forecast
Issued by NWS La Crosse, WI

Home | Current Version | Previous Version | Text Only | Print | Product List | Glossary On
Versions: 1 2 3 4 5 6 7 8 9 10 11 12 13 14 15 16 17 18 19 20 21 22 23 24 25 26 27 28 29 30 31
000
FTUS43 KARX 021720
TAFLSE
TAF
KLSE 021720Z 0218/0318 18005KT P6SM SCT200
     FM022200 16007KT P6SM BKN150
     FM030300 15010KT P6SM BKN070
     FM031000 15010KT 2SM -SN BKN012
     FM031200 16007KT 1SM -SN BKN008
     FM031600 18007KT 2SM -SN BKN012=

USA.gov is the U.S. government's official web portal to all federal, state and local government web resources and services.